Time;durP1;ratioP1;P1;durP2;ratioP2;P2;SDS_P1;SDS_P2;PMS_P1;PMS_P2;Temp;Humidity;BMP_temperature;BMP_pressure;BME280_temperature;BME280_humidity;BME280_pressure;Samples;Min_cycle;Max_cycle;Signal;HPM_P1;HPM_P2
2022/05/20 00:01:49;;;;;;;22.80;14.23;;;20.30;99.90;;;;;;5035006;28;20034;-62
2022/05/20 00:04:15;;;;;;;19.27;13.70;;;20.20;99.90;;;;;;5034804;28;20566;-63
2022/05/20 00:06:41;;;;;;;17.77;14.95;;;20.20;99.90;;;;;;5030434;28;20046;-62
2022/05/20 00:09:06;;;;;;;16.88;15.18;;;20.10;99.90;;;;;;5035154;28;20048;-62
2022/05/20 00:11:32;;;;;;;20.67;14.43;;;19.80;99.90;;;;;;5035822;28;20044;-63
2022/05/20 00:13:58;;;;;;;19.65;14.05;;;19.80;99.90;;;;;;5034103;28;20046;-62
2022/05/20 00:16:24;;;;;;;16.75;13.80;;;19.90;99.90;;;;;;5035421;28;20025;-62
2022/05/20 00:18:50;;;;;;;23.60;14.77;;;19.90;99.90;;;;;;5032483;28;20037;-62
2022/05/20 00:21:15;;;;;;;18.52;14.45;;;19.90;99.90;;;;;;5034694;28;20025;-62
2022/05/20 00:23:41;;;;;;;18.70;13.93;;;19.60;99.90;;;;;;5036705;28;20033;-62
2022/05/20 00:26:07;;;;;;;20.65;14.63;;;19.90;99.90;;;;;;5033772;28;20024;-63
2022/05/20 00:28:33;;;;;;;19.05;14.18;;;19.90;99.90;;;;;;5035125;28;20113;-62
2022/05/20 00:31:06;;;;;;;21.60;15.02;;;19.80;99.90;;;;;;5033735;28;20032;-63
2022/05/20 00:33:33;;;;;;;19.27;14.90;;;19.80;99.90;;;;;;5031388;28;20120;-62
2022/05/20 00:35:59;;;;;;;19.25;13.60;;;19.70;99.90;;;;;;5037065;28;20122;-62
2022/05/20 00:38:26;;;;;;;19.50;14.93;;;19.60;99.90;;;;;;5034947;28;20490;-62
2022/05/20 00:40:54;;;;;;;15.65;13.77;;;19.70;99.90;;;;;;5035003;28;20021;-62
2022/05/20 00:43:26;;;;;;;21.23;14.82;;;19.70;99.90;;;;;;5035189;28;20033;-62
2022/05/20 00:46:08;;;;;;;21.50;15.57;;;19.50;99.90;;;;;;5032846;28;20402;-62
2022/05/20 00:48:34;;;;;;;15.05;13.25;;;19.40;99.90;;;;;;5030835;28;20040;-63
2022/05/20 00:51:07;;;;;;;17.45;15.25;;;19.30;99.90;;;;;;5036685;28;20036;-62
2022/05/20 00:54:03;;;;;;;17.42;14.70;;;19.30;99.90;;;;;;5033484;28;20099;-62
2022/05/20 00:56:36;;;;;;;19.15;15.88;;;19.30;99.90;;;;;;5034739;28;20040;-63
2022/05/20 00:59:06;;;;;;;18.02;14.63;;;19.40;99.90;;;;;;5034893;28;20113;-62
2022/05/20 01:01:32;;;;;;;17.77;15.38;;;19.20;99.90;;;;;;5034875;28;20034;-62
2022/05/20 01:03:58;;;;;;;18.60;16.77;;;19.10;99.90;;;;;;5031334;28;20029;-63
2022/05/20 01:06:24;;;;;;;18.08;14.63;;;19.00;99.90;;;;;;5031549;28;20398;-63
2022/05/20 01:08:51;;;;;;;20.23;17.02;;;18.80;99.90;;;;;;5036627;28;20033;-62
2022/05/20 01:11:16;;;;;;;23.85;17.00;;;18.70;99.90;;;;;;5034598;28;20026;-63
2022/05/20 01:13:47;;;;;;;23.15;15.88;;;18.90;99.90;;;;;;5034427;28;20044;-62
2022/05/20 01:16:13;;;;;;;20.13;15.98;;;18.90;99.90;;;;;;5034354;28;20021;-62
2022/05/20 01:18:41;;;;;;;19.70;15.57;;;19.00;99.90;;;;;;5029800;28;20049;-62
2022/05/20 01:21:07;;;;;;;20.17;15.38;;;18.90;99.90;;;;;;5048124;28;20029;-62
2022/05/20 01:23:35;;;;;;;21.05;15.63;;;18.90;99.90;;;;;;5033265;28;20033;-62
2022/05/20 01:26:01;;;;;;;20.38;16.15;;;18.90;99.90;;;;;;5034660;28;20033;-62
2022/05/20 01:28:29;;;;;;;16.48;14.32;;;18.90;99.90;;;;;;5033309;28;20135;-63
2022/05/20 01:31:13;;;;;;;22.00;15.35;;;19.10;99.90;;;;;;5032136;28;20093;-62
2022/05/20 01:33:45;;;;;;;19.80;14.45;;;19.00;99.90;;;;;;5014164;28;20513;-62
2022/05/20 01:36:18;;;;;;;21.77;16.23;;;19.10;99.90;;;;;;5044004;28;20033;-62
2022/05/20 01:38:44;;;;;;;19.20;15.10;;;18.90;99.90;;;;;;5035488;28;20088;-62
2022/05/20 01:41:33;;;;;;;23.52;15.23;;;18.90;99.90;;;;;;5034618;28;20044;-63
2022/05/20 01:44:05;;;;;;;21.15;15.35;;;18.90;99.90;;;;;;5033238;28;20029;-62
2022/05/20 01:46:49;;;;;;;19.95;15.27;;;18.80;99.90;;;;;;5033945;28;20063;-62
2022/05/20 01:49:24;;;;;;;22.15;15.32;;;18.80;99.90;;;;;;5033779;28;20116;-62
2022/05/20 01:52:00;;;;;;;25.25;15.55;;;18.80;99.90;;;;;;5031401;28;20025;-62
2022/05/20 01:54:44;;;;;;;16.77;14.63;;;18.80;99.90;;;;;;5031293;28;20395;-62
2022/05/20 01:57:30;;;;;;;18.40;14.85;;;18.80;99.90;;;;;;5043963;28;20061;-62
2022/05/20 02:00:23;;;;;;;23.23;15.07;;;18.80;99.90;;;;;;5034687;28;20030;-62
2022/05/20 02:03:11;;;;;;;19.73;15.13;;;18.80;99.90;;;;;;5033442;28;20083;-63
2022/05/20 02:05:54;;;;;;;20.15;15.07;;;18.70;99.90;;;;;;5033047;28;20076;-62
2022/05/20 02:08:28;;;;;;;21.77;14.75;;;18.70;99.90;;;;;;5034072;28;20123;-63
2022/05/20 02:11:06;;;;;;;;;;;18.70;99.90;;;;;;5034355;28;20090;-62
2022/05/20 02:13:34;;;;;;;23.70;14.20;;;18.70;99.90;;;;;;5034088;28;19925;-63
2022/05/20 02:16:08;;;;;;;18.08;13.60;;;18.70;99.90;;;;;;5032542;28;20028;-62
2022/05/20 02:18:41;;;;;;;22.33;14.40;;;18.80;99.90;;;;;;5032464;28;20521;-62
2022/05/20 02:21:12;;;;;;;18.55;14.98;;;18.70;99.90;;;;;;5051727;28;20021;-62
2022/05/20 02:23:47;;;;;;;19.15;14.02;;;18.70;99.90;;;;;;5036973;28;20386;-62
2022/05/20 02:26:17;;;;;;;17.58;15.20;;;18.70;99.90;;;;;;5037270;28;20037;-62
2022/05/20 02:28:47;;;;;;;21.77;15.25;;;18.70;99.90;;;;;;5037477;28;20021;-62
2022/05/20 02:31:22;;;;;;;18.15;14.07;;;18.60;99.90;;;;;;5037406;28;20032;-62
2022/05/20 02:33:48;;;;;;;21.85;15.80;;;18.60;99.90;;;;;;5034642;28;20060;-62
2022/05/20 02:36:33;;;;;;;21.38;15.13;;;18.50;99.90;;;;;;5037526;28;20021;-63
2022/05/20 02:38:59;;;;;;;22.20;15.95;;;18.60;99.90;;;;;;5038300;28;20419;-62
2022/05/20 02:41:25;;;;;;;19.98;15.57;;;18.50;99.90;;;;;;5037225;28;20030;-62
2022/05/20 02:43:51;;;;;;;19.98;15.75;;;18.40;99.90;;;;;;5037401;28;20378;-62
2022/05/20 02:46:17;;;;;;;20.02;15.82;;;18.40;99.90;;;;;;5037073;28;20075;-62
2022/05/20 02:48:44;;;;;;;21.15;16.33;;;18.30;99.90;;;;;;5033499;28;20057;-62
2022/05/20 02:51:11;;;;;;;21.25;16.05;;;18.30;99.90;;;;;;5038427;28;20393;-63
2022/05/20 02:53:37;;;;;;;23.70;15.63;;;18.30;99.90;;;;;;5035924;28;20120;-62
2022/05/20 02:56:03;;;;;;;21.83;16.75;;;18.30;99.90;;;;;;5037470;28;20552;-62
2022/05/20 03:04:09;;;;;;;24.08;16.23;;;18.10;99.90;;;;;;5035684;28;20043;-62
2022/05/20 03:06:39;;;;;;;20.42;14.73;;;18.00;99.90;;;;;;5032891;28;20104;-62
2022/05/20 03:09:07;;;;;;;23.75;16.38;;;18.20;99.90;;;;;;5050216;28;20071;-62
2022/05/20 03:11:34;;;;;;;23.33;16.75;;;18.10;99.90;;;;;;5037192;28;20021;-62
2022/05/20 03:14:02;;;;;;;21.40;15.20;;;18.00;99.90;;;;;;5036417;28;20069;-62
2022/05/20 03:16:27;;;;;;;19.20;13.98;;;18.10;99.90;;;;;;5035419;28;20121;-62
2022/05/20 03:18:53;;;;;;;23.35;16.15;;;18.10;99.90;;;;;;5034300;28;20108;-62
2022/05/20 03:21:19;;;;;;;22.95;15.93;;;18.00;99.90;;;;;;5035426;28;20029;-62
2022/05/20 03:23:44;;;;;;;20.17;16.20;;;17.90;99.90;;;;;;5038253;28;20029;-62
2022/05/20 03:26:10;;;;;;;20.83;16.65;;;17.90;99.90;;;;;;5035821;28;20036;-62
2022/05/20 03:28:36;;;;;;;24.75;16.98;;;17.80;99.90;;;;;;5035483;28;20053;-62
2022/05/20 03:31:09;;;;;;;19.45;16.48;;;17.70;99.90;;;;;;5035147;28;20116;-62
2022/05/20 03:33:36;;;;;;;21.42;17.40;;;17.80;99.90;;;;;;5032333;28;20048;-62
2022/05/20 03:36:02;;;;;;;25.25;18.85;;;17.70;99.90;;;;;;5038571;28;20025;-62
2022/05/20 03:38:28;;;;;;;25.55;18.13;;;17.60;99.90;;;;;;5036163;28;20060;-63
2022/05/20 03:40:53;;;;;;;24.42;18.77;;;17.50;99.90;;;;;;5035152;28;20425;-62
2022/05/20 03:43:19;;;;;;;22.67;19.13;;;17.40;99.90;;;;;;5035592;28;20477;-62
2022/05/20 03:45:45;;;;;;;24.02;18.95;;;17.50;99.90;;;;;;5032955;28;20029;-62
2022/05/20 03:48:10;;;;;;;23.58;19.42;;;17.50;99.90;;;;;;5037124;28;20405;-62
2022/05/20 03:50:36;;;;;;;24.30;19.05;;;17.40;99.90;;;;;;5036471;28;20026;-62
2022/05/20 03:53:03;;;;;;;24.33;18.05;;;17.20;99.90;;;;;;5036404;28;20025;-62
2022/05/20 03:55:29;;;;;;;23.77;19.08;;;17.20;99.90;;;;;;5035831;28;20036;-62
2022/05/20 03:57:55;;;;;;;20.75;17.73;;;17.20;99.90;;;;;;5033573;28;20612;-62
2022/05/20 04:00:21;;;;;;;27.15;18.75;;;17.20;99.90;;;;;;5034198;28;20034;-62
2022/05/20 04:02:47;;;;;;;20.48;17.80;;;17.10;99.90;;;;;;5037862;28;20405;-62
2022/05/20 04:05:14;;;;;;;23.48;20.17;;;17.20;99.90;;;;;;5035804;28;20028;-62
2022/05/20 04:07:39;;;;;;;24.45;19.05;;;17.20;99.90;;;;;;5035773;28;20108;-63
2022/05/20 04:10:07;;;;;;;23.67;18.75;;;17.20;99.90;;;;;;5035005;28;20602;-62
2022/05/20 04:12:36;;;;;;;21.92;18.67;;;17.20;99.90;;;;;;5031183;28;20040;-62
2022/05/20 04:15:04;;;;;;;23.50;19.90;;;17.20;99.90;;;;;;5037522;28;20029;-62
2022/05/20 04:17:30;;;;;;;23.92;19.60;;;17.10;99.90;;;;;;5035364;28;20405;-62
2022/05/20 04:19:56;;;;;;;24.00;21.42;;;17.00;99.90;;;;;;5034072;28;20025;-62
2022/05/20 04:22:27;;;;;;;26.05;21.55;;;17.10;99.90;;;;;;5035813;28;20037;-62
2022/05/20 04:24:53;;;;;;;30.25;22.73;;;17.00;99.90;;;;;;5033069;28;20107;-62
2022/05/20 04:27:19;;;;;;;27.75;23.48;;;16.90;99.90;;;;;;5033839;28;20057;-62
2022/05/20 04:29:45;;;;;;;24.30;21.25;;;16.90;99.90;;;;;;5036982;28;20034;-62
2022/05/20 04:32:11;;;;;;;27.73;20.92;;;16.90;99.90;;;;;;5035207;28;20095;-62
2022/05/20 04:34:37;;;;;;;28.58;22.60;;;16.90;99.90;;;;;;5035171;28;20379;-62
2022/05/20 04:37:03;;;;;;;24.45;21.13;;;16.80;99.90;;;;;;5034069;28;20036;-61
2022/05/20 04:39:29;;;;;;;29.67;22.00;;;16.90;99.90;;;;;;5031474;28;20080;-62
2022/05/20 04:47:27;;;;;;;27.05;22.50;;;17.00;99.90;;;;;;5035600;28;20532;-62
2022/05/20 04:49:54;;;;;;;29.27;21.85;;;16.90;99.90;;;;;;5034972;28;20018;-62
2022/05/20 04:52:20;;;;;;;25.27;21.52;;;17.10;99.90;;;;;;5035172;28;20116;-62
2022/05/20 04:54:49;;;;;;;29.88;22.27;;;17.10;99.90;;;;;;5031599;28;20025;-62
2022/05/20 04:57:30;;;;;;;27.98;21.95;;;17.10;99.90;;;;;;5033987;28;20478;-62
2022/05/20 05:00:07;;;;;;;25.90;22.45;;;17.00;99.90;;;;;;5035783;28;20021;-62
2022/05/20 05:02:34;;;;;;;28.13;23.10;;;17.20;99.90;;;;;;5033376;28;20512;-62
2022/05/20 05:05:00;;;;;;;19.48;17.40;;;17.20;99.90;;;;;;5034485;28;20504;-62
2022/05/20 05:07:25;;;;;;;22.92;18.90;;;17.70;99.90;;;;;;5034324;28;20033;-62
2022/05/20 05:09:53;;;;;;;15.50;13.90;;;18.20;99.90;;;;;;5031299;28;20031;-63
2022/05/20 05:12:19;;;;;;;19.35;15.63;;;18.50;99.90;;;;;;5032739;28;20036;-63
2022/05/20 05:14:48;;;;;;;20.35;15.65;;;18.60;99.90;;;;;;5035778;28;20044;-63
2022/05/20 05:18:09;;;;;;;22.15;17.40;;;18.50;99.90;;;;;;5034176;28;20017;-63
2022/05/20 05:20:04;;;;;;;22.05;17.05;;;18.60;99.90;;;;;;5034045;28;20120;-63
2022/05/20 05:22:30;;;;;;;23.15;16.02;;;18.80;99.90;;;;;;5032970;28;20032;-62
2022/05/20 05:24:55;;;;;;;24.23;16.52;;;18.70;99.90;;;;;;5032452;28;20508;-63
2022/05/20 05:27:21;;;;;;;19.13;15.70;;;18.80;99.90;;;;;;5032246;28;20033;-62
2022/05/20 05:29:47;;;;;;;20.63;15.18;;;19.10;99.90;;;;;;5036017;28;20018;-62
2022/05/20 05:32:12;;;;;;;18.10;14.10;;;19.40;99.90;;;;;;5034284;28;20072;-62
2022/05/20 05:34:38;;;;;;;18.77;13.75;;;19.80;99.90;;;;;;5034526;28;20567;-62
2022/05/20 05:37:04;;;;;;;20.27;13.52;;;20.00;99.90;;;;;;5031863;28;20056;-62
2022/05/20 05:39:31;;;;;;;18.30;12.32;;;20.30;99.90;;;;;;5030266;28;20435;-62
2022/05/20 05:42:00;;;;;;;18.27;11.85;;;20.60;99.90;;;;;;5068190;28;20033;-62
2022/05/20 05:44:25;;;;;;;14.52;12.50;;;20.50;99.90;;;;;;5034410;28;20017;-62
2022/05/20 05:46:51;;;;;;;20.77;13.57;;;20.20;99.90;;;;;;5034091;28;20033;-63
2022/05/20 05:49:17;;;;;;;21.90;12.95;;;20.10;99.90;;;;;;5034498;28;20028;-63
2022/05/20 05:51:43;;;;;;;19.98;11.82;;;20.00;99.90;;;;;;5031295;28;20037;-63
2022/05/20 05:54:09;;;;;;;19.27;11.25;;;20.60;99.90;;;;;;5039026;28;20069;-63
2022/05/20 05:56:36;;;;;;;19.27;11.00;;;20.80;99.90;;;;;;5038483;28;20095;-63
2022/05/20 05:59:03;;;;;;;14.10;10.82;;;21.10;99.90;;;;;;5038303;28;20029;-63
2022/05/20 06:01:29;;;;;;;17.77;11.95;;;21.10;99.90;;;;;;5038468;28;20083;-63
2022/05/20 06:03:55;;;;;;;18.92;11.65;;;20.60;99.90;;;;;;5035981;28;20491;-63
2022/05/20 06:06:20;;;;;;;13.75;11.77;;;20.20;99.90;;;;;;5036227;28;20163;-63
2022/05/20 06:08:46;;;;;;;17.08;11.60;;;20.20;99.90;;;;;;5039265;28;20032;-63
2022/05/20 06:11:13;;;;;;;15.75;10.93;;;20.60;99.90;;;;;;5037933;28;20162;-63
2022/05/20 06:13:39;;;;;;;13.75;9.15;;;22.30;99.90;;;;;;5038107;28;20050;-64
2022/05/20 06:16:05;;;;;;;12.80;9.57;;;23.50;99.90;;;;;;5035820;28;20431;-63
2022/05/20 06:18:31;;;;;;;17.65;10.93;;;23.40;99.90;;;;;;5033934;28;20038;-64
2022/05/20 06:20:57;;;;;;;16.23;9.90;;;22.80;99.90;;;;;;5040035;28;20029;-63
2022/05/20 06:23:23;;;;;;;16.38;9.23;;;23.40;99.90;;;;;;5037427;28;20445;-63
2022/05/20 06:25:51;;;;;;;16.75;10.15;;;23.50;99.90;;;;;;5037563;28;20065;-64
2022/05/20 06:28:18;;;;;;;16.33;9.77;;;22.40;99.90;;;;;;5037564;28;20112;-64
2022/05/20 06:30:45;;;;;;;17.15;10.60;;;22.10;99.90;;;;;;5033818;28;20039;-63
2022/05/20 06:33:12;;;;;;;16.83;10.38;;;21.10;99.90;;;;;;5038113;28;20091;-63
2022/05/20 06:41:08;;;;;;;13.80;10.63;;;21.20;99.90;;;;;;5037704;28;20387;-63
2022/05/20 06:43:34;;;;;;;13.02;10.07;;;20.80;99.90;;;;;;5037230;28;20041;-63
2022/05/20 06:46:02;;;;;;;16.23;10.80;;;21.10;99.90;;;;;;5036216;28;20033;-63
2022/05/20 06:48:47;;;;;;;17.00;11.05;;;21.30;99.90;;;;;;5034214;28;20239;-63
2022/05/20 06:51:17;;;;;;;15.95;10.60;;;21.50;99.90;;;;;;5047009;28;20021;-63
2022/05/20 06:53:43;;;;;;;17.45;9.80;;;21.80;99.90;;;;;;5038010;28;20037;-63
2022/05/20 06:56:09;;;;;;;17.15;10.35;;;21.80;99.90;;;;;;5035676;28;20025;-63
2022/05/20 06:58:35;;;;;;;12.05;9.43;;;22.00;99.90;;;;;;5037344;28;20025;-63
2022/05/20 07:01:03;;;;;;;12.00;9.68;;;22.40;99.90;;;;;;5034662;28;20043;-63
2022/05/20 07:03:28;;;;;;;14.95;10.65;;;22.40;99.90;;;;;;5032857;28;20513;-63
2022/05/20 07:05:54;;;;;;;17.50;11.35;;;22.50;99.90;;;;;;5038854;28;20067;-63
2022/05/20 07:08:21;;;;;;;13.65;10.48;;;22.20;99.90;;;;;;5036601;28;20084;-63
2022/05/20 07:10:46;;;;;;;16.08;11.32;;;22.30;99.90;;;;;;5037193;28;20397;-63
2022/05/20 07:13:13;;;;;;;21.40;12.35;;;22.40;99.90;;;;;;5036731;28;20021;-63
2022/05/20 07:15:38;;;;;;;18.95;12.38;;;22.80;99.90;;;;;;5031266;28;20034;-63
2022/05/20 07:18:04;;;;;;;17.08;13.15;;;22.80;99.90;;;;;;5038905;28;20028;-63
2022/05/20 07:20:30;;;;;;;18.98;14.30;;;22.50;99.90;;;;;;5036611;28;20405;-63
2022/05/20 07:22:56;;;;;;;18.33;14.40;;;22.30;99.90;;;;;;5035101;28;20025;-63
2022/05/20 07:25:21;;;;;;;17.48;14.70;;;22.20;99.90;;;;;;5036375;28;20036;-63
2022/05/20 07:27:47;;;;;;;20.77;14.45;;;22.10;99.90;;;;;;5033360;28;20040;-63
2022/05/20 07:30:14;;;;;;;16.15;13.88;;;22.50;99.90;;;;;;5036746;28;20032;-63
2022/05/20 07:32:40;;;;;;;17.33;14.40;;;22.70;99.90;;;;;;5036894;28;20032;-63
2022/05/20 07:35:09;;;;;;;15.18;13.10;;;22.50;99.90;;;;;;5034657;28;20022;-64
2022/05/20 07:37:35;;;;;;;13.18;11.25;;;22.80;99.90;;;;;;5036263;28;20504;-63
2022/05/20 07:40:01;;;;;;;12.10;10.85;;;23.30;99.90;;;;;;5035186;28;20024;-63
2022/05/20 07:42:27;;;;;;;14.07;10.52;;;23.50;99.90;;;;;;5033308;28;20025;-63
2022/05/20 07:44:53;;;;;;;11.98;9.48;;;23.90;99.90;;;;;;5038050;28;20026;-63
2022/05/20 07:47:20;;;;;;;13.88;12.32;;;23.90;99.90;;;;;;5036049;28;20033;-63
2022/05/20 07:49:46;;;;;;;12.25;10.00;;;23.90;99.90;;;;;;5036242;28;20520;-63
2022/05/20 07:53:19;;;;;;;15.10;13.32;;;23.60;99.90;;;;;;5035955;28;20021;-63
2022/05/20 07:55:02;;;;;;;15.50;13.88;;;23.10;99.90;;;;;;5034527;28;20409;-63
2022/05/20 07:57:29;;;;;;;16.13;14.07;;;23.10;99.90;;;;;;5032799;28;20029;-63
2022/05/20 07:59:55;;;;;;;16.48;13.13;;;23.10;99.90;;;;;;5038377;28;20028;-63
2022/05/20 08:02:24;;;;;;;20.92;15.60;;;22.90;99.90;;;;;;5035771;28;20401;-63
2022/05/20 08:04:53;;;;;;;18.77;16.65;;;22.80;99.90;;;;;;5035416;28;20052;-63
2022/05/20 08:07:20;;;;;;;20.17;15.63;;;22.90;99.90;;;;;;5035787;28;20112;-63
2022/05/20 08:09:47;;;;;;;20.42;15.25;;;23.30;99.90;;;;;;5031222;28;20502;-63
2022/05/20 08:12:13;;;;;;;18.75;15.10;;;23.60;99.90;;;;;;5036307;28;20513;-63
2022/05/20 08:14:39;;;;;;;19.10;15.80;;;23.40;99.90;;;;;;5034276;28;20064;-63
2022/05/20 08:17:06;;;;;;;17.10;15.00;;;23.20;99.90;;;;;;5035092;28;20470;-63
2022/05/20 08:19:32;;;;;;;13.95;12.48;;;23.40;99.90;;;;;;5035053;28;20500;-63
2022/05/20 08:21:58;;;;;;;18.42;14.57;;;23.80;99.90;;;;;;5033675;28;20037;-63
2022/05/20 08:24:25;;;;;;;15.88;14.20;;;23.90;99.90;;;;;;5032964;28;20014;-64
2022/05/20 08:26:51;;;;;;;16.35;13.10;;;23.90;99.90;;;;;;5037646;28;20042;-63
2022/05/20 08:29:18;;;;;;;15.82;13.27;;;24.00;99.90;;;;;;5035290;28;20132;-63
2022/05/20 08:31:45;;;;;;;18.88;11.93;;;24.10;99.90;;;;;;5035274;28;20020;-63
2022/05/20 08:34:11;;;;;;;12.07;9.93;;;24.40;99.90;;;;;;5035133;28;20114;-63
2022/05/20 08:36:38;;;;;;;15.48;9.98;;;24.60;99.90;;;;;;5030898;28;20057;-63
2022/05/20 08:39:05;;;;;;;14.77;9.52;;;24.40;99.90;;;;;;5037157;28;20053;-63
2022/05/20 08:41:38;;;;;;;11.13;8.90;;;24.60;99.90;;;;;;5035300;28;20030;-63
2022/05/20 08:44:06;;;;;;;15.07;9.43;;;25.00;99.90;;;;;;5034960;28;20112;-62
2022/05/20 08:46:32;;;;;;;13.77;8.82;;;25.40;99.90;;;;;;5034921;28;20757;-63
2022/05/20 08:48:58;;;;;;;16.85;9.32;;;25.30;99.90;;;;;;5032974;28;20083;-63
2022/05/20 08:51:29;;;;;;;12.05;8.88;;;25.30;99.90;;;;;;5033109;28;20132;-63
2022/05/20 08:53:56;;;;;;;14.48;8.70;;;25.00;99.90;;;;;;5035854;28;20079;-63
2022/05/20 08:56:24;;;;;;;12.68;8.23;;;24.60;99.90;;;;;;5034707;28;20025;-63
2022/05/20 08:58:59;;;;;;;14.50;7.45;;;24.20;99.90;;;;;;5034662;28;20056;-63
2022/05/20 09:01:29;;;;;;;10.68;7.95;;;24.20;99.90;;;;;;5034859;28;20064;-63
2022/05/20 09:03:55;;;;;;;12.07;6.47;;;24.30;99.90;;;;;;5032245;28;20057;-62
2022/05/20 09:06:20;;;;;;;12.75;7.00;;;24.40;99.90;;;;;;5033311;28;20117;-63
2022/05/20 09:09:02;;;;;;;14.25;6.90;;;24.30;99.90;;;;;;5036157;28;20507;-63
2022/05/20 09:11:29;;;;;;;13.55;7.15;;;24.50;99.90;;;;;;5034920;28;20041;-62
2022/05/20 09:17:03;;;;;;;9.45;7.43;;;24.80;99.90;;;;;;5034467;28;20032;-63
2022/05/20 09:19:29;;;;;;;10.65;6.57;;;24.90;99.90;;;;;;5034550;28;20036;-63
2022/05/20 09:22:13;;;;;;;11.63;6.85;;;24.90;99.90;;;;;;5032530;28;20108;-63
2022/05/20 09:24:42;;;;;;;10.55;6.82;;;24.80;99.90;;;;;;5014515;28;20037;-63
2022/05/20 09:27:13;;;;;;;9.98;5.75;;;25.10;99.90;;;;;;5043678;28;20096;-63
2022/05/20 09:29:46;;;;;;;9.05;5.85;;;25.20;99.90;;;;;;5033666;28;20036;-63
2022/05/20 09:32:33;;;;;;;8.90;4.65;;;25.20;99.90;;;;;;5032679;28;20013;-63
2022/05/20 09:35:03;;;;;;;10.75;4.75;;;25.20;99.90;;;;;;5033444;28;20383;-63
2022/05/20 09:37:33;;;;;;;9.50;4.68;;;25.60;99.90;;;;;;5032822;28;20468;-63
2022/05/20 09:40:15;;;;;;;10.63;5.70;;;25.70;99.90;;;;;;5032575;28;20052;-63
2022/05/20 09:42:57;;;;;;;9.98;5.20;;;25.50;99.90;;;;;;5014547;28;20109;-63
2022/05/20 09:45:23;;;;;;;9.70;5.00;;;25.50;99.90;;;;;;5032080;28;20378;-63
2022/05/20 09:47:56;;;;;;;13.52;4.50;;;25.40;99.90;;;;;;5035695;28;20025;-63
2022/05/20 09:50:28;;;;;;;10.68;5.50;;;25.20;99.90;;;;;;5034206;28;20061;-62
2022/05/20 09:52:59;;;;;;;9.55;5.72;;;25.20;99.90;;;;;;5034359;28;20074;-63
2022/05/20 09:55:43;;;;;;;11.60;4.95;;;25.10;99.90;;;;;;5034128;28;20031;-63
2022/05/20 09:58:27;;;;;;;9.63;4.82;;;25.10;99.90;;;;;;5033765;28;20143;-62
2022/05/20 10:01:15;;;;;;;13.18;4.60;;;25.10;99.90;;;;;;5017403;28;20029;-63
2022/05/20 10:03:56;;;;;;;9.30;5.50;;;25.10;99.90;;;;;;5014313;28;20034;-62
2022/05/20 10:06:41;;;;;;;9.50;5.60;;;24.60;99.90;;;;;;5032543;28;20469;-63
2022/05/20 10:09:48;;;;;;;8.85;4.93;;;24.20;99.90;;;;;;5043217;28;20029;-62
2022/05/20 10:12:35;;;;;;;11.63;4.75;;;24.40;99.90;;;;;;5040702;28;20037;-64
2022/05/20 10:15:07;;;;;;;14.88;4.70;;;24.60;99.90;;;;;;5035469;28;20037;-63
2022/05/20 10:17:56;;;;;;;11.05;3.97;;;24.60;99.90;;;;;;5033943;28;20025;-63
2022/05/20 10:20:27;;;;;;;13.48;5.30;;;24.40;99.90;;;;;;5028997;28;20041;-63
2022/05/20 10:23:18;;;;;;;12.50;4.80;;;24.40;99.90;;;;;;5033941;28;20052;-62
2022/05/20 10:26:05;;;;;;;9.13;4.15;;;24.40;99.90;;;;;;5033758;28;20489;-63
2022/05/20 10:34:15;;;;;;;11.95;3.70;;;24.40;99.90;;;;;;5033603;28;20047;-63
2022/05/20 10:36:47;;;;;;;9.50;4.28;;;24.40;99.90;;;;;;5029467;28;20022;-63
2022/05/20 10:39:42;;;;;;;10.20;4.65;;;24.40;99.90;;;;;;5035791;28;20084;-63
2022/05/20 10:42:10;;;;;;;14.63;3.85;;;24.50;99.90;;;;;;5046710;28;20537;-63
2022/05/20 10:50:29;;;;;;;12.18;3.83;;;25.00;99.90;;;;;;5036139;28;20088;-63
2022/05/20 10:53:13;;;;;;;11.15;4.28;;;25.10;99.90;;;;;;5036908;28;20072;-63
2022/05/20 10:56:14;;;;;;;13.60;3.55;;;25.10;99.90;;;;;;5036961;28;20513;-64
2022/05/20 10:58:52;;;;;;;9.85;3.88;;;25.00;99.90;;;;;;5036681;28;20490;-63
2022/05/20 11:01:54;;;;;;;10.77;3.95;;;25.20;99.90;;;;;;5037035;28;20115;-63
2022/05/20 11:04:40;;;;;;;11.10;3.33;;;25.00;99.90;;;;;;5036962;28;20071;-63
2022/05/20 11:07:09;;;;;;;10.27;3.45;;;25.00;99.90;;;;;;5036139;28;20071;-63
2022/05/20 11:10:02;;;;;;;8.40;3.78;;;24.90;99.90;;;;;;5033349;28;20029;-63
2022/05/20 11:13:01;;;;;;;8.30;3.70;;;25.00;99.90;;;;;;5047358;28;20035;-63
2022/05/20 11:15:27;;;;;;;10.30;3.83;;;25.10;99.90;;;;;;5047040;28;20108;-62
2022/05/20 11:18:05;;;;;;;9.90;3.30;;;25.00;99.90;;;;;;5038853;28;20116;-63
2022/05/20 11:20:52;;;;;;;12.18;3.80;;;25.10;99.90;;;;;;5036445;28;20021;-63
2022/05/20 11:23:24;;;;;;;10.40;3.75;;;25.30;99.90;;;;;;5036868;28;20064;-63
2022/05/20 11:26:07;;;;;;;9.52;3.58;;;25.50;99.90;;;;;;5036408;28;20018;-64
2022/05/20 11:29:08;;;;;;;7.60;3.10;;;26.00;99.90;;;;;;5034754;28;20490;-63
2022/05/20 11:31:56;;;;;;;7.22;3.35;;;26.30;99.90;;;;;;5036294;28;20596;-64
2022/05/20 11:34:52;;;;;;;11.52;3.35;;;25.80;99.90;;;;;;5036476;28;20032;-63
2022/05/20 11:37:51;;;;;;;14.15;3.83;;;26.20;99.90;;;;;;5036574;28;20036;-63
2022/05/20 11:40:41;;;;;;;10.43;3.60;;;26.20;99.90;;;;;;5036632;28;20059;-63
2022/05/20 11:43:21;;;;;;;9.32;3.30;;;26.20;99.90;;;;;;5035327;28;20033;-63
2022/05/20 11:46:06;;;;;;;7.13;3.20;;;25.70;99.90;;;;;;5018007;28;20494;-62
2022/05/20 11:48:53;;;;;;;9.43;3.72;;;25.80;99.90;;;;;;5032810;28;20034;-63
2022/05/20 11:51:28;;;;;;;7.78;3.00;;;25.70;99.90;;;;;;5046114;28;20059;-63
2022/05/20 11:54:03;;;;;;;7.95;3.20;;;25.70;99.90;;;;;;5036211;28;20556;-62
2022/05/20 11:56:37;;;;;;;11.18;3.08;;;25.90;99.90;;;;;;5035734;28;20029;-63
2022/05/20 11:59:33;;;;;;;10.45;3.65;;;25.90;99.90;;;;;;5036384;28;20374;-63
2022/05/20 12:02:00;;;;;;;9.65;3.30;;;26.00;99.90;;;;;;5034657;28;20116;-63
2022/05/20 12:04:31;;;;;;;6.63;3.28;;;25.90;99.90;;;;;;5034512;28;20373;-63
2022/05/20 12:07:10;;;;;;;6.93;3.70;;;26.00;99.90;;;;;;5032370;28;20188;-63
2022/05/20 12:09:40;;;;;;;8.95;3.22;;;26.00;99.90;;;;;;5031490;28;20112;-63
2022/05/20 12:12:11;;;;;;;9.48;3.13;;;26.30;99.90;;;;;;5048647;28;20423;-62
2022/05/20 12:14:59;;;;;;;8.60;3.08;;;26.40;99.90;;;;;;5035912;28;20249;-62
2022/05/20 12:17:32;;;;;;;10.48;3.58;;;26.20;99.90;;;;;;5035517;28;20021;-63
2022/05/20 12:26:07;;;;;;;8.43;3.10;;;26.10;99.90;;;;;;5010023;28;20064;-63
2022/05/20 12:28:36;;;;;;;10.88;3.25;;;25.90;99.90;;;;;;5010807;28;20156;-63
2022/05/20 12:31:18;;;;;;;7.57;3.10;;;26.30;99.90;;;;;;5010420;28;20041;-63
2022/05/20 12:34:14;;;;;;;10.15;3.45;;;26.10;99.90;;;;;;4995484;28;20037;-62
2022/05/20 12:36:42;;;;;;;6.82;2.90;;;26.40;99.90;;;;;;5010231;28;20061;-63
2022/05/20 12:39:08;;;;;;;10.93;3.70;;;26.30;99.90;;;;;;5006953;28;20050;-63
2022/05/20 12:41:50;;;;;;;9.13;3.75;;;26.20;99.90;;;;;;5009832;28;20513;-63
2022/05/20 12:44:15;;;;;;;10.23;3.17;;;26.10;99.90;;;;;;5010156;28;20048;-63
2022/05/20 12:47:05;;;;;;;10.90;3.40;;;26.10;99.90;;;;;;5010082;28;20038;-63
2022/05/20 12:49:38;;;;;;;9.73;2.80;;;26.40;99.90;;;;;;5009924;28;20052;-62
2022/05/20 12:52:21;;;;;;;19.75;4.22;;;26.50;99.90;;;;;;5010466;28;20038;-63
2022/05/20 12:54:52;;;;;;;16.60;3.90;;;26.50;99.90;;;;;;4995107;28;20038;-63
2022/05/20 12:57:26;;;;;;;12.85;3.72;;;26.80;99.90;;;;;;5009758;28;20459;-63
2022/05/20 12:59:58;;;;;;;12.05;3.38;;;27.40;99.90;;;;;;5008531;28;20026;-63
2022/05/20 13:02:31;;;;;;;11.48;3.58;;;27.10;99.90;;;;;;5010047;28;20042;-63
2022/05/20 13:05:20;;;;;;;11.13;3.42;;;27.00;99.90;;;;;;5029466;28;20053;-62
2022/05/20 13:07:47;;;;;;;11.25;3.92;;;27.20;99.90;;;;;;5034673;28;20037;-62
2022/05/20 13:10:38;;;;;;;12.05;3.67;;;27.50;99.90;;;;;;5034280;28;20029;-63
2022/05/20 13:13:08;;;;;;;8.95;3.20;;;27.10;99.90;;;;;;5021018;28;20041;-63
2022/05/20 13:15:42;;;;;;;13.10;3.58;;;26.80;99.90;;;;;;5031245;28;20117;-63
2022/05/20 13:18:17;;;;;;;13.20;3.50;;;26.80;99.90;;;;;;5042672;28;20386;-62
2022/05/20 13:20:43;;;;;;;11.00;3.53;;;26.80;99.90;;;;;;5035260;28;20051;-63
2022/05/20 13:23:16;;;;;;;5.63;2.97;;;27.20;99.90;;;;;;5034077;28;20045;-62
2022/05/20 13:25:45;;;;;;;11.75;3.50;;;27.00;99.90;;;;;;5033398;28;20021;-63
2022/05/20 13:28:11;;;;;;;13.32;3.55;;;27.00;99.90;;;;;;5034156;28;20044;-63
2022/05/20 13:30:37;;;;;;;7.90;3.53;;;26.20;99.90;;;;;;5030189;28;20022;-62
2022/05/20 13:33:08;;;;;;;8.02;3.10;;;26.30;99.90;;;;;;5036153;28;20445;-62